createdAt,value
2022-11-30T00:02:22.044Z,6.63
2022-11-30T00:04:48.706Z,6.38
2022-11-30T00:07:15.318Z,6.15
2022-11-30T00:09:41.848Z,6.45
2022-11-30T00:12:08.282Z,6.00
2022-11-30T00:14:35.107Z,6.80
2022-11-30T00:17:01.798Z,6.75
2022-11-30T00:19:28.307Z,5.80
2022-11-30T00:21:54.814Z,6.35
2022-11-30T00:24:21.386Z,6.50
2022-11-30T00:26:47.946Z,6.20
2022-11-30T00:29:14.488Z,6.93
2022-11-30T00:31:41.087Z,6.45
2022-11-30T00:34:07.553Z,6.22
2022-11-30T00:36:34.066Z,5.70
2022-11-30T00:39:00.765Z,6.18
2022-11-30T00:41:27.346Z,6.50
2022-11-30T00:43:53.845Z,6.28
2022-11-30T00:46:20.491Z,0.20
2022-11-30T00:48:47.227Z,0.10
2022-11-30T00:51:13.894Z,0.20
2022-11-30T00:53:41.067Z,0.10
2022-11-30T00:56:08.345Z,0.20
2022-11-30T00:58:34.787Z,0.20
2022-11-30T01:01:01.414Z,0.20
2022-11-30T01:03:28.105Z,0.20
2022-11-30T01:05:54.722Z,0.20
2022-11-30T01:08:21.306Z,0.20
2022-11-30T01:10:53.373Z,0.20
2022-11-30T01:13:19.861Z,0.10
2022-11-30T01:15:46.410Z,0.20
2022-11-30T01:18:13.226Z,0.20
2022-11-30T01:20:41.385Z,0.20
2022-11-30T01:23:07.967Z,0.10
2022-11-30T01:25:34.714Z,0.10
2022-11-30T01:28:01.265Z,0.20
2022-11-30T01:30:27.979Z,0.20
2022-11-30T01:32:54.674Z,0.10
2022-11-30T01:35:21.174Z,0.20
2022-11-30T01:37:47.645Z,0.20
2022-11-30T01:40:14.347Z,0.20
2022-11-30T01:42:45.507Z,0.10
2022-11-30T01:45:12.566Z,0.20
2022-11-30T01:47:41.205Z,0.20
2022-11-30T01:50:20.474Z,0.10
2022-11-30T01:52:48.647Z,0.13
2022-11-30T01:55:18.153Z,0.20
2022-11-30T01:57:59.706Z,0.17
2022-11-30T02:00:26.306Z,0.17
2022-11-30T02:02:55.833Z,0.17
2022-11-30T02:05:23.066Z,0.20
2022-11-30T02:07:50.378Z,0.15
2022-11-30T02:10:18.498Z,0.20
2022-11-30T02:13:03.885Z,0.20
2022-11-30T02:15:32.315Z,0.10
2022-11-30T02:18:05.986Z,0.20
2022-11-30T02:20:41.806Z,0.10
2022-11-30T02:23:08.305Z,0.20
2022-11-30T02:25:37.872Z,0.20
2022-11-30T02:28:23.205Z,0.20
2022-11-30T02:30:51.720Z,0.20
2022-11-30T02:33:23.786Z,0.20
2022-11-30T02:35:55.109Z,0.20
2022-11-30T02:38:23.290Z,0.20
2022-11-30T02:40:49.902Z,0.20
2022-11-30T02:43:17.527Z,0.20
2022-11-30T02:45:47.206Z,0.20
2022-11-30T02:48:15.378Z,0.20
2022-11-30T02:50:47.670Z,0.17
2022-11-30T02:53:14.199Z,0.20
2022-11-30T02:55:40.797Z,0.20
2022-11-30T02:58:07.363Z,0.30
2022-11-30T03:00:33.964Z,0.20
2022-11-30T03:03:00.553Z,0.20
2022-11-30T03:05:27.280Z,0.20
2022-11-30T03:07:53.920Z,0.20
2022-11-30T03:10:20.482Z,0.20
2022-11-30T03:12:47.176Z,0.10
2022-11-30T03:15:14.344Z,0.20
2022-11-30T03:17:40.962Z,0.20
2022-11-30T03:20:08.054Z,0.20
2022-11-30T03:22:34.696Z,0.22
2022-11-30T03:25:01.385Z,0.30
2022-11-30T03:27:27.912Z,0.20
2022-11-30T03:29:54.515Z,0.10
2022-11-30T03:32:21.034Z,0.20
2022-11-30T03:34:47.890Z,0.20
2022-11-30T03:37:14.726Z,0.20
2022-11-30T03:39:42.337Z,0.20
2022-11-30T03:42:08.903Z,0.20
2022-11-30T03:44:35.509Z,0.20
2022-11-30T03:47:02.050Z,0.20
2022-11-30T03:49:28.703Z,0.20
2022-11-30T03:51:55.208Z,0.20
2022-11-30T03:54:21.820Z,0.20
2022-11-30T03:56:48.575Z,0.28
2022-11-30T03:59:15.199Z,0.20
2022-11-30T04:01:41.958Z,0.20
2022-11-30T04:04:08.659Z,0.20
2022-11-30T04:06:35.186Z,0.10
2022-11-30T04:09:01.871Z,0.20
2022-11-30T04:11:28.542Z,0.20
2022-11-30T04:13:55.107Z,0.20
2022-11-30T04:16:21.766Z,0.20
2022-11-30T04:18:48.769Z,0.30
2022-11-30T04:21:15.333Z,0.20
2022-11-30T04:23:41.918Z,0.20
2022-11-30T04:26:13.794Z,0.20
2022-11-30T04:28:40.506Z,0.20
2022-11-30T04:31:07.131Z,0.20
2022-11-30T04:33:33.845Z,0.13
2022-11-30T04:36:02.285Z,0.20
2022-11-30T04:38:29.688Z,0.28
2022-11-30T04:40:56.392Z,0.20
2022-11-30T04:43:23.348Z,0.20
2022-11-30T04:45:49.905Z,0.20
2022-11-30T04:48:17.316Z,0.22
2022-11-30T04:50:44.159Z,0.20
2022-11-30T04:53:11.242Z,0.20
2022-11-30T04:55:38.477Z,0.20
2022-11-30T04:58:05.842Z,0.20
2022-11-30T05:00:32.588Z,0.10
2022-11-30T05:02:59.275Z,1.48
2022-11-30T05:05:25.903Z,0.10
2022-11-30T05:07:56.997Z,0.20
2022-11-30T05:10:23.954Z,0.20
2022-11-30T05:12:50.628Z,0.20
2022-11-30T05:15:17.266Z,0.10
2022-11-30T05:17:43.940Z,0.20
2022-11-30T05:20:10.865Z,0.20
2022-11-30T05:22:37.523Z,0.20
2022-11-30T05:25:04.488Z,0.20
2022-11-30T05:27:31.111Z,6.75
2022-11-30T05:29:57.667Z,6.70
2022-11-30T05:32:24.215Z,7.43
2022-11-30T05:34:51.927Z,7.57
2022-11-30T05:37:19.007Z,6.40
2022-11-30T05:39:45.500Z,7.05
2022-11-30T05:42:12.106Z,7.38
2022-11-30T05:44:38.738Z,6.78
2022-11-30T05:47:05.321Z,7.22
2022-11-30T05:49:31.961Z,7.30
2022-11-30T05:51:58.394Z,7.72
2022-11-30T05:54:24.851Z,7.78
2022-11-30T05:56:54.698Z,6.95
2022-11-30T05:59:22.239Z,6.93
2022-11-30T06:01:48.882Z,5.93
2022-11-30T06:04:15.559Z,7.25
2022-11-30T06:06:42.021Z,7.82
2022-11-30T06:09:08.476Z,7.60
2022-11-30T06:11:34.994Z,7.85
2022-11-30T06:14:01.509Z,7.40
2022-11-30T06:16:27.996Z,7.72
2022-11-30T06:18:54.656Z,7.07
2022-11-30T06:21:24.469Z,7.20
2022-11-30T06:23:51.913Z,7.80
2022-11-30T06:26:18.637Z,7.68
2022-11-30T06:28:48.100Z,7.28
2022-11-30T06:31:15.856Z,7.72
2022-11-30T06:33:43.510Z,7.03
2022-11-30T06:36:10.493Z,7.40
2022-11-30T06:38:37.056Z,7.03
2022-11-30T06:41:07.410Z,7.82
2022-11-30T06:43:34.852Z,7.18
2022-11-30T06:46:01.739Z,7.78
2022-11-30T06:48:28.293Z,7.70
2022-11-30T06:50:55.170Z,5.35
2022-11-30T06:53:21.622Z,7.13
2022-11-30T06:55:48.192Z,7.13
2022-11-30T06:58:14.634Z,7.63
2022-11-30T07:00:41.936Z,7.68
2022-11-30T07:03:08.582Z,8.35
2022-11-30T07:05:39.926Z,8.13
2022-11-30T07:08:06.398Z,7.57
2022-11-30T07:10:32.883Z,8.32
2022-11-30T07:12:59.310Z,7.38
2022-11-30T07:15:25.776Z,7.65
2022-11-30T07:17:52.261Z,7.75
2022-11-30T07:20:18.731Z,7.45
2022-11-30T07:22:45.147Z,8.00
2022-11-30T07:25:29.963Z,7.68
2022-11-30T07:27:56.506Z,7.70
2022-11-30T07:30:22.999Z,8.18
2022-11-30T07:32:49.517Z,7.95
2022-11-30T07:35:16.103Z,8.32
2022-11-30T07:37:42.563Z,7.95
2022-11-30T07:40:09.368Z,7.43
2022-11-30T07:42:35.936Z,7.70
2022-11-30T07:45:02.449Z,7.75
2022-11-30T07:47:29.017Z,7.90
2022-11-30T07:49:55.478Z,7.70
2022-11-30T07:52:21.938Z,7.70
2022-11-30T07:54:48.743Z,7.80
2022-11-30T07:57:15.426Z,6.93
2022-11-30T07:59:41.968Z,7.63
2022-11-30T08:02:10.289Z,7.47
2022-11-30T08:04:36.940Z,7.10
2022-11-30T08:07:03.399Z,7.53
2022-11-30T08:09:30.105Z,7.80
2022-11-30T08:11:57.122Z,7.80
2022-11-30T08:14:23.626Z,8.05
2022-11-30T08:16:50.331Z,7.25
2022-11-30T08:19:17.069Z,7.78
2022-11-30T08:21:43.526Z,7.70
2022-11-30T08:24:11.617Z,8.40
2022-11-30T08:26:38.109Z,8.80
2022-11-30T08:29:04.704Z,7.95
2022-11-30T08:31:32.519Z,8.38
2022-11-30T08:34:02.530Z,7.45
2022-11-30T08:36:29.985Z,8.02
2022-11-30T08:38:59.738Z,7.68
2022-11-30T08:41:26.676Z,7.97
2022-11-30T08:43:53.519Z,7.95
2022-11-30T08:46:49.781Z,8.35
2022-11-30T08:49:21.102Z,7.95
2022-11-30T08:54:36.643Z,7.63
2022-11-30T08:57:03.240Z,8.07
2022-11-30T08:59:31.337Z,7.82
2022-11-30T09:01:57.847Z,7.50
2022-11-30T09:04:24.328Z,8.60
2022-11-30T09:06:50.819Z,6.30
2022-11-30T09:09:17.457Z,8.25
2022-11-30T09:11:44.114Z,7.70
2022-11-30T09:14:10.696Z,7.82
2022-11-30T09:16:37.177Z,7.60
2022-11-30T09:19:03.768Z,7.55
2022-11-30T09:21:30.608Z,7.50
2022-11-30T09:23:57.218Z,7.75
2022-11-30T09:26:25.398Z,8.30
2022-11-30T09:28:52.467Z,7.43
2022-11-30T09:31:20.366Z,7.45
2022-11-30T09:33:47.114Z,7.72
2022-11-30T09:36:15.338Z,7.78
2022-11-30T09:38:45.131Z,7.88
2022-11-30T09:41:30.658Z,8.38
2022-11-30T09:44:00.237Z,7.68
2022-11-30T09:46:30.594Z,7.50
2022-11-30T09:48:57.147Z,8.30
2022-11-30T09:51:42.757Z,7.35
2022-11-30T09:54:12.727Z,7.40
2022-11-30T09:56:40.608Z,8.00
2022-11-30T09:59:12.797Z,7.93
2022-11-30T10:01:44.983Z,8.00
2022-11-30T10:04:19.702Z,7.80
2022-11-30T10:06:53.019Z,7.72
2022-11-30T10:10:29.869Z,7.97
2022-11-30T10:12:41.488Z,7.65
2022-11-30T10:15:22.927Z,7.55
2022-11-30T10:17:49.349Z,7.88
2022-11-30T10:20:34.537Z,7.43
2022-11-30T10:23:19.837Z,7.60
2022-11-30T10:26:04.584Z,7.55
2022-11-30T10:28:47.996Z,7.03
2022-11-30T10:31:15.426Z,7.70
2022-11-30T10:33:46.947Z,8.55
2022-11-30T10:36:16.111Z,8.40
2022-11-30T10:38:48.413Z,8.90
2022-11-30T10:41:17.680Z,8.75
2022-11-30T10:43:53.454Z,9.88
2022-11-30T10:46:33.577Z,10.73
2022-11-30T10:49:05.635Z,9.48
2022-11-30T10:51:34.201Z,9.38
2022-11-30T10:54:01.264Z,13.02
2022-11-30T10:56:27.771Z,11.00
2022-11-30T10:59:02.182Z,11.32
2022-11-30T11:01:33.283Z,10.93
2022-11-30T11:04:13.577Z,11.35
2022-11-30T11:06:43.374Z,10.77
2022-11-30T11:09:24.425Z,10.50
2022-11-30T11:12:20.160Z,12.35
2022-11-30T11:14:46.972Z,11.98
2022-11-30T11:17:19.451Z,12.23
2022-11-30T11:19:47.063Z,11.07
2022-11-30T11:22:18.811Z,11.45
2022-11-30T11:24:46.170Z,12.82
2022-11-30T11:27:29.710Z,11.95
2022-11-30T11:30:07.981Z,22.15
2022-11-30T11:32:34.810Z,13.68
2022-11-30T11:35:01.380Z,13.45
2022-11-30T11:37:30.955Z,13.13
2022-11-30T11:39:57.519Z,13.07
2022-11-30T11:42:24.345Z,13.35
2022-11-30T11:44:52.261Z,14.02
2022-11-30T11:47:25.531Z,14.60
2022-11-30T11:49:53.071Z,13.95
2022-11-30T11:52:22.689Z,14.75
2022-11-30T11:54:57.441Z,13.93
2022-11-30T11:57:27.731Z,13.48
2022-11-30T12:00:02.078Z,13.27
2022-11-30T12:02:46.718Z,13.10
2022-11-30T12:05:15.842Z,13.68
2022-11-30T12:07:46.776Z,13.73
2022-11-30T12:13:20.060Z,13.32
2022-11-30T12:15:59.190Z,14.07
2022-11-30T12:18:33.368Z,13.23
2022-11-30T12:21:02.179Z,13.23
2022-11-30T12:23:31.528Z,13.85
2022-11-30T12:26:12.059Z,12.95
2022-11-30T12:28:47.699Z,13.63
2022-11-30T12:31:18.557Z,12.70
2022-11-30T12:33:54.261Z,14.23
2022-11-30T12:36:36.109Z,13.10
2022-11-30T12:39:09.962Z,14.15
2022-11-30T12:41:47.160Z,13.30
2022-11-30T12:44:29.021Z,13.88
2022-11-30T12:47:18.524Z,13.13
2022-11-30T12:50:14.450Z,13.05
2022-11-30T12:52:40.999Z,13.00
2022-11-30T12:55:17.490Z,13.13
2022-11-30T12:57:48.871Z,9.13
2022-11-30T13:00:20.310Z,12.35
2022-11-30T13:03:05.456Z,12.50
2022-11-30T13:05:35.100Z,12.98
2022-11-30T13:08:04.516Z,12.38
2022-11-30T13:10:36.840Z,13.07
2022-11-30T13:13:04.687Z,12.25
2022-11-30T13:15:33.749Z,12.45
2022-11-30T13:18:02.001Z,12.05
2022-11-30T13:20:34.581Z,11.48
2022-11-30T13:23:01.029Z,12.15
2022-11-30T13:26:05.821Z,11.27
2022-11-30T13:28:25.739Z,11.60
2022-11-30T13:31:05.952Z,11.48
2022-11-30T13:33:35.599Z,10.50
2022-11-30T13:36:06.009Z,11.73
2022-11-30T13:38:37.892Z,10.75
2022-11-30T13:41:05.763Z,10.55
2022-11-30T13:43:41.749Z,10.82
2022-11-30T13:46:12.399Z,10.68
2022-11-30T13:48:39.938Z,11.05
2022-11-30T13:51:06.900Z,9.85
2022-11-30T13:53:35.950Z,11.07
2022-11-30T13:56:25.409Z,10.27
2022-11-30T13:59:10.654Z,10.13
2022-11-30T14:04:27.974Z,9.18
2022-11-30T14:06:59.418Z,9.07
2022-11-30T14:09:41.193Z,9.27
2022-11-30T14:12:26.289Z,9.27
2022-11-30T14:14:52.813Z,9.52
2022-11-30T14:17:21.219Z,9.10
2022-11-30T14:19:49.791Z,10.13
2022-11-30T14:22:16.580Z,10.40
2022-11-30T14:24:45.397Z,8.95
2022-11-30T14:27:20.750Z,8.50
2022-11-30T14:29:53.191Z,8.80
2022-11-30T14:32:25.560Z,8.52
2022-11-30T14:34:54.149Z,8.65
2022-11-30T14:37:22.228Z,9.02
2022-11-30T14:39:49.804Z,8.20
2022-11-30T14:42:26.909Z,8.30
2022-11-30T14:44:54.339Z,7.97
2022-11-30T14:47:22.570Z,9.13
2022-11-30T14:49:52.368Z,8.50
2022-11-30T14:52:38.161Z,7.93
2022-11-30T14:55:17.018Z,7.93
2022-11-30T14:57:43.607Z,7.65
2022-11-30T15:00:17.938Z,7.18
2022-11-30T15:02:44.579Z,7.70
2022-11-30T15:05:18.119Z,7.57
2022-11-30T15:07:45.585Z,7.15
2022-11-30T15:10:29.360Z,7.55
2022-11-30T15:12:56.449Z,6.97
2022-11-30T15:15:24.498Z,7.15
2022-11-30T15:18:20.633Z,6.80
2022-11-30T15:20:49.899Z,7.18
2022-11-30T15:23:16.848Z,7.35
2022-11-30T15:25:44.821Z,7.32
2022-11-30T15:28:12.908Z,7.22
2022-11-30T15:30:40.823Z,6.85
2022-11-30T15:33:13.050Z,7.10
2022-11-30T15:36:13.705Z,6.93
2022-11-30T15:38:31.947Z,7.30
2022-11-30T15:41:16.968Z,6.10
2022-11-30T15:43:43.542Z,7.05
2022-11-30T15:46:28.882Z,5.55
2022-11-30T15:49:05.118Z,6.50
2022-11-30T15:51:37.480Z,6.60
2022-11-30T15:54:04.749Z,7.03
2022-11-30T15:56:31.278Z,6.80
2022-11-30T15:59:02.688Z,6.20
2022-11-30T16:01:31.700Z,6.15
2022-11-30T16:03:59.860Z,6.85
2022-11-30T16:06:27.938Z,6.25
2022-11-30T16:08:54.968Z,6.85
2022-11-30T16:11:21.717Z,7.00
2022-11-30T16:13:48.528Z,6.60
2022-11-30T16:16:19.935Z,4.63
2022-11-30T16:18:47.346Z,4.85
2022-11-30T16:21:16.484Z,6.22
2022-11-30T16:23:43.568Z,6.18
2022-11-30T16:26:43.260Z,5.75
2022-11-30T16:29:00.986Z,6.18
2022-11-30T16:31:27.582Z,5.57
2022-11-30T16:33:54.054Z,5.93
2022-11-30T16:36:21.709Z,6.28
2022-11-30T16:38:49.069Z,6.10
2022-11-30T16:41:17.340Z,5.88
2022-11-30T16:43:44.641Z,5.65
2022-11-30T16:46:12.414Z,5.95
2022-11-30T16:48:39.069Z,5.93
2022-11-30T16:51:05.819Z,5.63
2022-11-30T16:53:32.298Z,5.50
2022-11-30T16:56:00.000Z,6.15
2022-11-30T16:58:26.479Z,5.18
2022-11-30T17:00:53.037Z,5.88
2022-11-30T17:03:25.159Z,5.88
2022-11-30T17:05:51.617Z,5.88
2022-11-30T17:08:18.314Z,5.45
2022-11-30T17:10:45.532Z,5.63
2022-11-30T17:13:15.727Z,5.63
2022-11-30T17:15:42.229Z,6.18
2022-11-30T17:18:08.754Z,5.05
2022-11-30T17:20:36.728Z,5.53
2022-11-30T17:23:03.803Z,5.70
2022-11-30T17:25:30.419Z,5.70
2022-11-30T17:27:56.929Z,5.50
2022-11-30T17:30:24.077Z,5.07
2022-11-30T17:32:55.677Z,5.50
2022-11-30T17:35:22.514Z,5.28
2022-11-30T17:37:49.099Z,5.55
2022-11-30T17:40:16.270Z,5.55
2022-11-30T17:42:43.102Z,4.75
2022-11-30T17:45:10.088Z,5.90
2022-11-30T17:47:36.698Z,5.70
2022-11-30T17:50:03.279Z,5.57
2022-11-30T17:52:29.958Z,5.43
2022-11-30T17:54:56.561Z,4.82
2022-11-30T17:57:23.108Z,5.47
2022-11-30T17:59:49.578Z,5.43
2022-11-30T18:02:16.177Z,5.18
2022-11-30T18:04:42.722Z,5.30
2022-11-30T18:07:09.346Z,5.82
2022-11-30T18:09:42.203Z,5.07
2022-11-30T18:12:09.037Z,5.32
2022-11-30T18:14:35.609Z,5.05
2022-11-30T18:17:03.588Z,5.80
2022-11-30T18:19:30.998Z,4.32
2022-11-30T18:21:58.174Z,5.15
2022-11-30T18:24:25.814Z,4.70
2022-11-30T18:26:52.739Z,5.55
2022-11-30T18:29:19.340Z,5.30
2022-11-30T18:31:48.519Z,5.55
2022-11-30T18:34:15.335Z,5.53
2022-11-30T18:36:42.020Z,5.45
2022-11-30T18:39:09.878Z,5.30
2022-11-30T18:41:37.460Z,5.43
2022-11-30T18:44:06.096Z,5.43
2022-11-30T18:46:33.411Z,5.10
2022-11-30T18:49:01.431Z,5.10
2022-11-30T18:51:29.497Z,5.80
2022-11-30T18:54:00.108Z,5.13
2022-11-30T18:56:31.271Z,4.72
2022-11-30T18:58:59.748Z,5.15
2022-11-30T19:01:27.211Z,5.40
2022-11-30T19:03:58.230Z,5.03
2022-11-30T19:06:25.548Z,5.00
2022-11-30T19:08:52.201Z,4.95
2022-11-30T19:11:18.778Z,5.00
2022-11-30T19:13:45.604Z,4.55
2022-11-30T19:16:13.571Z,5.18
2022-11-30T19:18:40.468Z,4.90
2022-11-30T19:21:10.608Z,4.80
2022-11-30T19:23:38.047Z,5.32
2022-11-30T19:26:05.122Z,5.00
2022-11-30T19:28:32.276Z,9.88
2022-11-30T19:30:59.002Z,5.63
2022-11-30T19:33:26.170Z,5.30
2022-11-30T19:35:52.766Z,5.78
2022-11-30T19:38:19.267Z,5.45
2022-11-30T19:40:45.847Z,5.32
2022-11-30T19:43:12.377Z,5.10
2022-11-30T19:45:38.867Z,5.18
2022-11-30T19:48:05.570Z,5.57
2022-11-30T19:50:32.069Z,5.28
2022-11-30T19:52:59.207Z,5.00
2022-11-30T19:55:25.827Z,5.25
2022-11-30T19:57:52.347Z,5.15
2022-11-30T20:00:19.129Z,5.30
2022-11-30T20:02:47.326Z,4.18
2022-11-30T20:05:13.878Z,5.30
2022-11-30T20:07:40.653Z,4.85
2022-11-30T20:10:07.555Z,5.00
2022-11-30T20:12:35.082Z,5.40
2022-11-30T20:15:02.151Z,5.50
2022-11-30T20:17:29.213Z,4.90
2022-11-30T20:19:55.968Z,5.18
2022-11-30T20:22:22.858Z,5.13
2022-11-30T20:24:52.227Z,4.90
2022-11-30T20:27:25.504Z,5.20
2022-11-30T20:29:52.469Z,5.05
2022-11-30T20:32:19.587Z,5.00
2022-11-30T20:34:46.398Z,5.70
2022-11-30T20:37:13.511Z,5.13
2022-11-30T20:39:45.701Z,5.10
2022-11-30T20:42:12.957Z,5.20
2022-11-30T20:44:39.398Z,5.05
2022-11-30T20:47:05.907Z,5.50
2022-11-30T20:49:32.577Z,4.47
2022-11-30T20:51:59.087Z,5.25
2022-11-30T20:54:25.627Z,5.90
2022-11-30T20:56:52.187Z,5.35
2022-11-30T20:59:24.505Z,4.75
2022-11-30T21:01:51.670Z,5.13
2022-11-30T21:04:18.258Z,5.00
2022-11-30T21:06:48.540Z,5.18
2022-11-30T21:09:16.067Z,5.30
2022-11-30T21:11:43.198Z,5.20
2022-11-30T21:14:10.556Z,5.03
2022-11-30T21:16:37.088Z,4.97
2022-11-30T21:19:04.377Z,5.50
2022-11-30T21:21:33.048Z,5.53
2022-11-30T21:24:00.827Z,5.10
2022-11-30T21:26:28.760Z,5.22
2022-11-30T21:28:58.328Z,5.25
2022-11-30T21:31:24.956Z,5.53
2022-11-30T21:33:53.584Z,5.68
2022-11-30T21:36:23.148Z,5.60
2022-11-30T21:38:54.292Z,5.70
2022-11-30T21:41:21.865Z,5.22
2022-11-30T21:43:48.513Z,5.22
2022-11-30T21:46:17.218Z,5.50
2022-11-30T21:48:44.935Z,5.28
2022-11-30T21:51:12.483Z,5.55
2022-11-30T21:53:49.230Z,5.18
2022-11-30T21:56:17.546Z,5.07
2022-11-30T21:58:44.816Z,5.15
2022-11-30T22:01:12.959Z,5.55
2022-11-30T22:03:39.478Z,5.40
2022-11-30T22:06:07.278Z,4.03
2022-11-30T22:08:34.481Z,5.18
2022-11-30T22:11:02.247Z,4.93
2022-11-30T22:13:29.254Z,5.32
2022-11-30T22:16:03.244Z,5.70
2022-11-30T22:18:29.981Z,5.20
2022-11-30T22:21:10.359Z,5.43
2022-11-30T22:23:37.915Z,5.03
2022-11-30T22:26:15.031Z,5.15
2022-11-30T22:28:43.305Z,6.07
2022-11-30T22:31:10.726Z,5.78
2022-11-30T22:33:38.057Z,5.20
2022-11-30T22:36:05.338Z,4.70
2022-11-30T22:38:31.892Z,5.55
2022-11-30T22:41:05.392Z,5.32
2022-11-30T22:43:32.388Z,5.32
2022-11-30T22:46:02.681Z,5.15
2022-11-30T22:48:30.171Z,5.47
2022-11-30T22:50:56.956Z,5.65
2022-11-30T22:53:23.619Z,5.13
2022-11-30T22:55:50.356Z,5.90
2022-11-30T22:58:16.934Z,6.18
2022-11-30T23:00:43.438Z,5.10
2022-11-30T23:03:10.243Z,5.22
2022-11-30T23:05:36.988Z,5.43
2022-11-30T23:08:03.618Z,5.30
2022-11-30T23:10:30.190Z,4.82
2022-11-30T23:13:00.309Z,5.60
2022-11-30T23:15:26.973Z,5.07
2022-11-30T23:17:53.654Z,6.07
2022-11-30T23:20:22.486Z,4.93
2022-11-30T23:22:49.051Z,6.40
2022-11-30T23:25:16.839Z,6.05
2022-11-30T23:27:43.484Z,6.10
2022-11-30T23:30:10.120Z,5.70
2022-11-30T23:32:36.720Z,5.75
2022-11-30T23:35:03.300Z,5.50
2022-11-30T23:37:29.859Z,5.15
2022-11-30T23:39:56.447Z,5.55
2022-11-30T23:42:22.898Z,5.80
2022-11-30T23:44:49.390Z,5.82
2022-11-30T23:47:18.466Z,5.82
2022-11-30T23:49:45.112Z,6.20
2022-11-30T23:52:11.636Z,6.30
2022-11-30T23:54:38.139Z,6.03
2022-11-30T23:57:04.551Z,5.85
2022-11-30T23:59:31.061Z,5.97
